sensor_id;sensor_type;location;lat;lon;timestamp;temperature;humidity
63537;DHT22;49686;51.880;5.632;2023-05-07T00:01:35;11.10;99.90
63537;DHT22;49686;51.880;5.632;2023-05-07T00:04:02;11.10;99.90
63537;DHT22;49686;51.880;5.632;2023-05-07T00:06:29;11.00;99.90
63537;DHT22;49686;51.880;5.632;2023-05-07T00:08:56;11.00;99.90
63537;DHT22;49686;51.880;5.632;2023-05-07T00:11:25;10.90;99.90
63537;DHT22;49686;51.880;5.632;2023-05-07T00:13:52;11.00;99.90
63537;DHT22;49686;51.880;5.632;2023-05-07T00:16:19;11.00;99.90
63537;DHT22;49686;51.880;5.632;2023-05-07T00:18:46;10.90;99.90
63537;DHT22;49686;51.880;5.632;2023-05-07T00:21:13;11.00;99.90
63537;DHT22;49686;51.880;5.632;2023-05-07T00:23:40;11.00;99.90
63537;DHT22;49686;51.880;5.632;2023-05-07T00:26:06;10.90;99.90
63537;DHT22;49686;51.880;5.632;2023-05-07T00:28:36;10.90;99.90
63537;DHT22;49686;51.880;5.632;2023-05-07T00:31:03;10.90;99.90
63537;DHT22;49686;51.880;5.632;2023-05-07T00:33:31;10.90;99.90
63537;DHT22;49686;51.880;5.632;2023-05-07T00:35:57;10.90;99.90
63537;DHT22;49686;51.880;5.632;2023-05-07T00:38:24;10.90;99.90
63537;DHT22;49686;51.880;5.632;2023-05-07T00:40:51;10.80;99.90
63537;DHT22;49686;51.880;5.632;2023-05-07T00:43:18;10.80;99.90
63537;DHT22;49686;51.880;5.632;2023-05-07T00:45:46;10.80;99.90
63537;DHT22;49686;51.880;5.632;2023-05-07T00:48:15;10.90;99.90
63537;DHT22;49686;51.880;5.632;2023-05-07T00:50:43;10.90;99.90
63537;DHT22;49686;51.880;5.632;2023-05-07T00:53:10;10.90;99.90
63537;DHT22;49686;51.880;5.632;2023-05-07T00:55:38;10.90;99.90
63537;DHT22;49686;51.880;5.632;2023-05-07T00:58:05;10.80;99.90
63537;DHT22;49686;51.880;5.632;2023-05-07T01:00:32;10.80;99.90
63537;DHT22;49686;51.880;5.632;2023-05-07T01:03:00;10.90;99.90
63537;DHT22;49686;51.880;5.632;2023-05-07T01:05:28;11.00;99.90
63537;DHT22;49686;51.880;5.632;2023-05-07T01:07:57;11.00;99.90
63537;DHT22;49686;51.880;5.632;2023-05-07T01:10:24;11.00;99.90
63537;DHT22;49686;51.880;5.632;2023-05-07T01:12:51;11.00;99.90
63537;DHT22;49686;51.880;5.632;2023-05-07T01:15:19;11.00;99.90
63537;DHT22;49686;51.880;5.632;2023-05-07T01:17:47;11.00;99.90
63537;DHT22;49686;51.880;5.632;2023-05-07T01:20:17;11.10;99.90
63537;DHT22;49686;51.880;5.632;2023-05-07T01:22:45;11.10;99.90
63537;DHT22;49686;51.880;5.632;2023-05-07T01:25:12;11.10;99.90
63537;DHT22;49686;51.880;5.632;2023-05-07T01:27:40;11.10;99.90
63537;DHT22;49686;51.880;5.632;2023-05-07T01:30:07;11.10;99.90
63537;DHT22;49686;51.880;5.632;2023-05-07T01:32:38;11.20;99.90
63537;DHT22;49686;51.880;5.632;2023-05-07T01:35:11;11.20;99.90
63537;DHT22;49686;51.880;5.632;2023-05-07T01:37:38;11.20;99.90
63537;DHT22;49686;51.880;5.632;2023-05-07T01:40:08;11.20;99.90
63537;DHT22;49686;51.880;5.632;2023-05-07T01:42:36;11.20;99.90
63537;DHT22;49686;51.880;5.632;2023-05-07T01:45:03;11.20;99.90
63537;DHT22;49686;51.880;5.632;2023-05-07T01:47:30;11.20;99.90
63537;DHT22;49686;51.880;5.632;2023-05-07T01:49:57;11.20;99.90
63537;DHT22;49686;51.880;5.632;2023-05-07T01:52:24;11.20;99.90
63537;DHT22;49686;51.880;5.632;2023-05-07T01:54:51;11.20;99.90
63537;DHT22;49686;51.880;5.632;2023-05-07T01:57:20;11.20;99.90
63537;DHT22;49686;51.880;5.632;2023-05-07T01:59:46;11.20;99.90
63537;DHT22;49686;51.880;5.632;2023-05-07T02:02:13;11.20;99.90
63537;DHT22;49686;51.880;5.632;2023-05-07T02:04:40;11.20;99.90
63537;DHT22;49686;51.880;5.632;2023-05-07T02:07:07;11.30;99.90
63537;DHT22;49686;51.880;5.632;2023-05-07T02:09:33;11.30;99.90
63537;DHT22;49686;51.880;5.632;2023-05-07T02:12:00;11.20;99.90
63537;DHT22;49686;51.880;5.632;2023-05-07T02:14:28;11.30;99.90
63537;DHT22;49686;51.880;5.632;2023-05-07T02:16:55;11.20;99.90
63537;DHT22;49686;51.880;5.632;2023-05-07T02:19:23;11.20;99.90
63537;DHT22;49686;51.880;5.632;2023-05-07T02:21:50;11.20;99.90
63537;DHT22;49686;51.880;5.632;2023-05-07T02:24:17;11.20;99.90
63537;DHT22;49686;51.880;5.632;2023-05-07T02:26:44;11.20;99.90
63537;DHT22;49686;51.880;5.632;2023-05-07T02:29:11;11.10;99.90
63537;DHT22;49686;51.880;5.632;2023-05-07T02:31:39;11.10;99.90
63537;DHT22;49686;51.880;5.632;2023-05-07T02:34:07;11.10;99.90
63537;DHT22;49686;51.880;5.632;2023-05-07T02:36:34;11.00;99.90
63537;DHT22;49686;51.880;5.632;2023-05-07T02:39:01;11.10;99.90
63537;DHT22;49686;51.880;5.632;2023-05-07T02:41:28;11.10;99.90
63537;DHT22;49686;51.880;5.632;2023-05-07T02:43:55;11.10;99.90
63537;DHT22;49686;51.880;5.632;2023-05-07T02:46:22;11.10;99.90
63537;DHT22;49686;51.880;5.632;2023-05-07T02:48:50;11.10;99.90
63537;DHT22;49686;51.880;5.632;2023-05-07T02:51:20;11.10;99.90
63537;DHT22;49686;51.880;5.632;2023-05-07T02:53:50;11.10;99.90
63537;DHT22;49686;51.880;5.632;2023-05-07T02:56:17;11.10;99.90
63537;DHT22;49686;51.880;5.632;2023-05-07T02:58:45;11.10;99.90
63537;DHT22;49686;51.880;5.632;2023-05-07T03:01:12;11.10;99.90
63537;DHT22;49686;51.880;5.632;2023-05-07T03:03:39;11.20;99.90
63537;DHT22;49686;51.880;5.632;2023-05-07T03:06:08;11.20;99.90
63537;DHT22;49686;51.880;5.632;2023-05-07T03:08:35;11.20;99.90
63537;DHT22;49686;51.880;5.632;2023-05-07T03:11:02;11.20;99.90
63537;DHT22;49686;51.880;5.632;2023-05-07T03:13:29;11.30;99.90
63537;DHT22;49686;51.880;5.632;2023-05-07T03:15:55;11.30;99.90
63537;DHT22;49686;51.880;5.632;2023-05-07T03:18:22;11.30;99.90
63537;DHT22;49686;51.880;5.632;2023-05-07T03:20:49;11.30;99.90
63537;DHT22;49686;51.880;5.632;2023-05-07T03:23:20;11.30;99.90
63537;DHT22;49686;51.880;5.632;2023-05-07T03:25:50;11.30;99.90
63537;DHT22;49686;51.880;5.632;2023-05-07T03:28:17;11.30;99.90
63537;DHT22;49686;51.880;5.632;2023-05-07T03:30:43;11.30;99.90
63537;DHT22;49686;51.880;5.632;2023-05-07T03:33:10;11.30;99.90
63537;DHT22;49686;51.880;5.632;2023-05-07T03:35:38;11.30;99.90
63537;DHT22;49686;51.880;5.632;2023-05-07T03:38:05;11.30;99.90
63537;DHT22;49686;51.880;5.632;2023-05-07T03:40:33;11.30;99.90
63537;DHT22;49686;51.880;5.632;2023-05-07T03:43:00;11.30;99.90
63537;DHT22;49686;51.880;5.632;2023-05-07T03:45:27;11.30;99.90
63537;DHT22;49686;51.880;5.632;2023-05-07T03:47:54;11.40;99.90
63537;DHT22;49686;51.880;5.632;2023-05-07T03:50:21;11.40;99.90
63537;DHT22;49686;51.880;5.632;2023-05-07T03:52:48;11.40;99.90
63537;DHT22;49686;51.880;5.632;2023-05-07T03:55:14;11.30;99.90
63537;DHT22;49686;51.880;5.632;2023-05-07T03:57:42;11.30;99.90
63537;DHT22;49686;51.880;5.632;2023-05-07T04:00:10;11.30;99.90
63537;DHT22;49686;51.880;5.632;2023-05-07T04:02:38;11.30;99.90
63537;DHT22;49686;51.880;5.632;2023-05-07T04:05:05;11.30;99.90
63537;DHT22;49686;51.880;5.632;2023-05-07T04:07:32;11.30;99.90
63537;DHT22;49686;51.880;5.632;2023-05-07T04:09:59;11.30;99.90
63537;DHT22;49686;51.880;5.632;2023-05-07T04:12:26;11.30;99.90
63537;DHT22;49686;51.880;5.632;2023-05-07T04:14:54;11.30;99.90
63537;DHT22;49686;51.880;5.632;2023-05-07T04:17:21;11.30;99.90
63537;DHT22;49686;51.880;5.632;2023-05-07T04:19:48;11.40;99.90
63537;DHT22;49686;51.880;5.632;2023-05-07T04:22:15;11.40;99.90
63537;DHT22;49686;51.880;5.632;2023-05-07T04:24:41;11.40;99.90
63537;DHT22;49686;51.880;5.632;2023-05-07T04:27:08;11.40;99.90
63537;DHT22;49686;51.880;5.632;2023-05-07T04:29:35;11.40;99.90
63537;DHT22;49686;51.880;5.632;2023-05-07T04:32:04;11.40;99.90
63537;DHT22;49686;51.880;5.632;2023-05-07T04:34:30;11.40;99.90
63537;DHT22;49686;51.880;5.632;2023-05-07T04:36:58;11.50;99.90
63537;DHT22;49686;51.880;5.632;2023-05-07T04:39:25;11.40;99.90
63537;DHT22;49686;51.880;5.632;2023-05-07T04:41:52;11.40;99.90
63537;DHT22;49686;51.880;5.632;2023-05-07T04:44:19;11.50;99.90
63537;DHT22;49686;51.880;5.632;2023-05-07T04:46:46;11.50;99.90
63537;DHT22;49686;51.880;5.632;2023-05-07T04:49:14;11.50;99.90
63537;DHT22;49686;51.880;5.632;2023-05-07T04:51:41;11.50;99.90
63537;DHT22;49686;51.880;5.632;2023-05-07T04:54:08;11.50;99.90
63537;DHT22;49686;51.880;5.632;2023-05-07T04:56:35;11.60;99.90
63537;DHT22;49686;51.880;5.632;2023-05-07T04:59:03;11.60;99.90
63537;DHT22;49686;51.880;5.632;2023-05-07T05:01:30;11.60;99.90
63537;DHT22;49686;51.880;5.632;2023-05-07T05:03:57;11.60;99.90
63537;DHT22;49686;51.880;5.632;2023-05-07T05:06:25;11.60;99.90
63537;DHT22;49686;51.880;5.632;2023-05-07T05:08:52;11.60;99.90
63537;DHT22;49686;51.880;5.632;2023-05-07T05:11:19;11.70;99.90
63537;DHT22;49686;51.880;5.632;2023-05-07T05:13:45;11.70;99.90
63537;DHT22;49686;51.880;5.632;2023-05-07T05:16:12;11.80;99.90
63537;DHT22;49686;51.880;5.632;2023-05-07T05:18:39;11.80;99.90
63537;DHT22;49686;51.880;5.632;2023-05-07T05:21:06;11.80;99.90
63537;DHT22;49686;51.880;5.632;2023-05-07T05:23:42;11.80;99.90
63537;DHT22;49686;51.880;5.632;2023-05-07T05:26:09;11.90;99.90
63537;DHT22;49686;51.880;5.632;2023-05-07T05:28:36;11.90;99.90
63537;DHT22;49686;51.880;5.632;2023-05-07T05:31:05;11.90;99.90
63537;DHT22;49686;51.880;5.632;2023-05-07T05:33:32;11.90;99.90
63537;DHT22;49686;51.880;5.632;2023-05-07T05:35:59;11.90;99.90
63537;DHT22;49686;51.880;5.632;2023-05-07T05:38:26;11.90;99.90
63537;DHT22;49686;51.880;5.632;2023-05-07T05:40:55;11.90;99.90
63537;DHT22;49686;51.880;5.632;2023-05-07T05:43:22;12.00;99.90
63537;DHT22;49686;51.880;5.632;2023-05-07T05:45:49;12.00;99.90
63537;DHT22;49686;51.880;5.632;2023-05-07T05:48:16;12.00;99.90
63537;DHT22;49686;51.880;5.632;2023-05-07T05:50:43;12.10;99.90
63537;DHT22;49686;51.880;5.632;2023-05-07T05:53:10;12.10;99.90
63537;DHT22;49686;51.880;5.632;2023-05-07T05:55:37;12.10;99.90
63537;DHT22;49686;51.880;5.632;2023-05-07T05:58:05;12.10;99.90
63537;DHT22;49686;51.880;5.632;2023-05-07T06:00:32;12.10;99.90
63537;DHT22;49686;51.880;5.632;2023-05-07T06:02:59;12.10;99.90
63537;DHT22;49686;51.880;5.632;2023-05-07T06:05:27;12.10;99.90
63537;DHT22;49686;51.880;5.632;2023-05-07T06:07:54;12.10;99.90
63537;DHT22;49686;51.880;5.632;2023-05-07T06:10:20;12.10;99.90
63537;DHT22;49686;51.880;5.632;2023-05-07T06:12:47;12.10;99.90
63537;DHT22;49686;51.880;5.632;2023-05-07T06:15:16;12.10;99.90
63537;DHT22;49686;51.880;5.632;2023-05-07T06:17:42;12.10;99.90
63537;DHT22;49686;51.880;5.632;2023-05-07T06:20:09;12.10;99.90
63537;DHT22;49686;51.880;5.632;2023-05-07T06:22:37;12.10;99.90
63537;DHT22;49686;51.880;5.632;2023-05-07T06:25:06;12.20;99.90
63537;DHT22;49686;51.880;5.632;2023-05-07T06:27:33;12.30;99.90
63537;DHT22;49686;51.880;5.632;2023-05-07T06:30:00;12.30;99.90
63537;DHT22;49686;51.880;5.632;2023-05-07T06:32:29;12.30;99.90
63537;DHT22;49686;51.880;5.632;2023-05-07T06:34:55;12.40;99.90
63537;DHT22;49686;51.880;5.632;2023-05-07T06:37:22;12.40;99.90
63537;DHT22;49686;51.880;5.632;2023-05-07T06:39:49;12.50;99.90
63537;DHT22;49686;51.880;5.632;2023-05-07T06:42:16;12.50;99.90
63537;DHT22;49686;51.880;5.632;2023-05-07T06:44:43;12.60;99.90
63537;DHT22;49686;51.880;5.632;2023-05-07T06:47:09;12.60;99.90
63537;DHT22;49686;51.880;5.632;2023-05-07T06:49:39;12.60;99.90
63537;DHT22;49686;51.880;5.632;2023-05-07T06:52:06;12.70;99.90
63537;DHT22;49686;51.880;5.632;2023-05-07T06:54:33;12.70;99.90
63537;DHT22;49686;51.880;5.632;2023-05-07T06:56:59;12.80;99.90
63537;DHT22;49686;51.880;5.632;2023-05-07T06:59:26;12.80;99.90
63537;DHT22;49686;51.880;5.632;2023-05-07T07:01:53;12.90;99.90
63537;DHT22;49686;51.880;5.632;2023-05-07T07:04:20;12.80;99.90
63537;DHT22;49686;51.880;5.632;2023-05-07T07:06:49;12.80;99.90
63537;DHT22;49686;51.880;5.632;2023-05-07T07:09:15;12.90;99.90
63537;DHT22;49686;51.880;5.632;2023-05-07T07:11:42;13.00;99.90
63537;DHT22;49686;51.880;5.632;2023-05-07T07:14:09;13.00;99.90
63537;DHT22;49686;51.880;5.632;2023-05-07T07:16:38;12.90;99.90
63537;DHT22;49686;51.880;5.632;2023-05-07T07:19:04;12.90;99.90
63537;DHT22;49686;51.880;5.632;2023-05-07T07:21:31;12.90;99.90
63537;DHT22;49686;51.880;5.632;2023-05-07T07:23:59;12.90;99.90
63537;DHT22;49686;51.880;5.632;2023-05-07T07:26:26;12.80;99.90
63537;DHT22;49686;51.880;5.632;2023-05-07T07:28:53;12.90;99.90
63537;DHT22;49686;51.880;5.632;2023-05-07T07:31:20;12.90;99.90
63537;DHT22;49686;51.880;5.632;2023-05-07T07:33:47;12.90;99.90
63537;DHT22;49686;51.880;5.632;2023-05-07T07:36:17;13.00;99.90
63537;DHT22;49686;51.880;5.632;2023-05-07T07:38:44;13.00;99.90
63537;DHT22;49686;51.880;5.632;2023-05-07T07:41:12;12.90;99.90
63537;DHT22;49686;51.880;5.632;2023-05-07T07:43:39;13.00;99.90
63537;DHT22;49686;51.880;5.632;2023-05-07T07:46:09;13.10;99.90
63537;DHT22;49686;51.880;5.632;2023-05-07T07:48:40;13.20;99.90
63537;DHT22;49686;51.880;5.632;2023-05-07T07:51:13;13.20;99.90
63537;DHT22;49686;51.880;5.632;2023-05-07T07:53:40;13.10;99.90
63537;DHT22;49686;51.880;5.632;2023-05-07T07:56:07;13.20;99.90
63537;DHT22;49686;51.880;5.632;2023-05-07T07:58:35;13.10;99.90
63537;DHT22;49686;51.880;5.632;2023-05-07T08:01:03;13.10;99.90
63537;DHT22;49686;51.880;5.632;2023-05-07T08:03:30;13.20;99.90
63537;DHT22;49686;51.880;5.632;2023-05-07T08:05:56;13.20;99.90
63537;DHT22;49686;51.880;5.632;2023-05-07T08:08:23;13.40;99.90
63537;DHT22;49686;51.880;5.632;2023-05-07T08:10:50;13.50;99.90
63537;DHT22;49686;51.880;5.632;2023-05-07T08:13:17;13.60;99.90
63537;DHT22;49686;51.880;5.632;2023-05-07T08:15:45;13.70;99.90
63537;DHT22;49686;51.880;5.632;2023-05-07T08:18:13;13.80;99.90
63537;DHT22;49686;51.880;5.632;2023-05-07T08:20:40;13.80;99.90
63537;DHT22;49686;51.880;5.632;2023-05-07T08:23:07;13.80;99.90
63537;DHT22;49686;51.880;5.632;2023-05-07T08:25:34;13.90;99.90
63537;DHT22;49686;51.880;5.632;2023-05-07T08:28:00;14.10;99.90
63537;DHT22;49686;51.880;5.632;2023-05-07T08:30:27;14.20;99.90
63537;DHT22;49686;51.880;5.632;2023-05-07T08:32:55;14.40;99.90
63537;DHT22;49686;51.880;5.632;2023-05-07T08:35:23;14.80;99.90
63537;DHT22;49686;51.880;5.632;2023-05-07T08:37:49;15.00;99.90
63537;DHT22;49686;51.880;5.632;2023-05-07T08:40:18;15.20;99.90
63537;DHT22;49686;51.880;5.632;2023-05-07T08:42:49;15.30;99.90
63537;DHT22;49686;51.880;5.632;2023-05-07T08:45:19;15.70;99.90
63537;DHT22;49686;51.880;5.632;2023-05-07T08:47:47;15.90;99.90
63537;DHT22;49686;51.880;5.632;2023-05-07T08:50:19;15.70;99.90
63537;DHT22;49686;51.880;5.632;2023-05-07T08:52:47;15.60;99.90
63537;DHT22;49686;51.880;5.632;2023-05-07T08:55:14;15.40;99.90
63537;DHT22;49686;51.880;5.632;2023-05-07T08:57:42;15.40;99.90
63537;DHT22;49686;51.880;5.632;2023-05-07T09:00:09;15.50;99.90
63537;DHT22;49686;51.880;5.632;2023-05-07T09:02:37;15.70;99.90
63537;DHT22;49686;51.880;5.632;2023-05-07T09:05:04;15.90;99.90
63537;DHT22;49686;51.880;5.632;2023-05-07T09:07:33;16.10;99.90
63537;DHT22;49686;51.880;5.632;2023-05-07T09:10:02;16.20;99.90
63537;DHT22;49686;51.880;5.632;2023-05-07T09:12:29;16.40;99.90
63537;DHT22;49686;51.880;5.632;2023-05-07T09:14:56;16.90;99.90
63537;DHT22;49686;51.880;5.632;2023-05-07T09:17:23;17.30;99.90
63537;DHT22;49686;51.880;5.632;2023-05-07T09:19:49;17.50;99.90
63537;DHT22;49686;51.880;5.632;2023-05-07T09:22:16;17.40;99.90
63537;DHT22;49686;51.880;5.632;2023-05-07T09:24:48;17.60;99.90
63537;DHT22;49686;51.880;5.632;2023-05-07T09:27:15;18.00;99.90
63537;DHT22;49686;51.880;5.632;2023-05-07T09:29:43;17.90;99.90
63537;DHT22;49686;51.880;5.632;2023-05-07T09:32:10;17.80;99.90
63537;DHT22;49686;51.880;5.632;2023-05-07T09:34:37;17.90;99.90
63537;DHT22;49686;51.880;5.632;2023-05-07T09:37:05;18.20;99.90
63537;DHT22;49686;51.880;5.632;2023-05-07T09:39:42;18.10;99.90
63537;DHT22;49686;51.880;5.632;2023-05-07T09:42:13;17.60;99.90
63537;DHT22;49686;51.880;5.632;2023-05-07T09:44:42;17.20;99.90
63537;DHT22;49686;51.880;5.632;2023-05-07T09:47:10;17.10;99.90
63537;DHT22;49686;51.880;5.632;2023-05-07T09:49:39;17.10;99.90
63537;DHT22;49686;51.880;5.632;2023-05-07T09:52:07;17.10;99.90
63537;DHT22;49686;51.880;5.632;2023-05-07T09:54:39;16.90;99.90
63537;DHT22;49686;51.880;5.632;2023-05-07T09:57:07;16.90;99.90
63537;DHT22;49686;51.880;5.632;2023-05-07T09:59:37;17.00;99.90
63537;DHT22;49686;51.880;5.632;2023-05-07T10:02:04;17.20;99.90
63537;DHT22;49686;51.880;5.632;2023-05-07T10:04:32;17.40;99.90
63537;DHT22;49686;51.880;5.632;2023-05-07T10:07:00;17.40;99.90
63537;DHT22;49686;51.880;5.632;2023-05-07T10:09:28;17.70;99.90
63537;DHT22;49686;51.880;5.632;2023-05-07T10:11:56;17.80;99.90
63537;DHT22;49686;51.880;5.632;2023-05-07T10:14:24;18.10;99.90
63537;DHT22;49686;51.880;5.632;2023-05-07T10:16:52;18.20;99.90
63537;DHT22;49686;51.880;5.632;2023-05-07T10:19:20;18.20;99.90
63537;DHT22;49686;51.880;5.632;2023-05-07T10:21:54;18.20;99.90
63537;DHT22;49686;51.880;5.632;2023-05-07T10:24:25;18.50;99.90
63537;DHT22;49686;51.880;5.632;2023-05-07T10:26:53;18.30;99.90
63537;DHT22;49686;51.880;5.632;2023-05-07T10:29:31;18.40;99.90
63537;DHT22;49686;51.880;5.632;2023-05-07T10:32:10;18.50;99.90
63537;DHT22;49686;51.880;5.632;2023-05-07T10:34:42;18.60;99.90
63537;DHT22;49686;51.880;5.632;2023-05-07T10:37:10;18.40;99.90
63537;DHT22;49686;51.880;5.632;2023-05-07T10:39:37;18.40;99.90
63537;DHT22;49686;51.880;5.632;2023-05-07T10:42:08;18.70;99.90
63537;DHT22;49686;51.880;5.632;2023-05-07T10:44:35;18.70;99.90
63537;DHT22;49686;51.880;5.632;2023-05-07T10:47:08;18.70;99.90
63537;DHT22;49686;51.880;5.632;2023-05-07T10:49:37;18.80;99.90
63537;DHT22;49686;51.880;5.632;2023-05-07T10:52:14;19.10;99.90
63537;DHT22;49686;51.880;5.632;2023-05-07T10:54:42;19.60;99.90
63537;DHT22;49686;51.880;5.632;2023-05-07T10:57:32;20.00;99.90
63537;DHT22;49686;51.880;5.632;2023-05-07T10:59:59;19.90;99.90
63537;DHT22;49686;51.880;5.632;2023-05-07T11:03:06;19.70;99.90
63537;DHT22;49686;51.880;5.632;2023-05-07T11:05:33;19.60;99.90
63537;DHT22;49686;51.880;5.632;2023-05-07T11:08:06;19.80;99.90
63537;DHT22;49686;51.880;5.632;2023-05-07T11:10:51;19.80;99.90
63537;DHT22;49686;51.880;5.632;2023-05-07T11:13:19;19.80;99.90
63537;DHT22;49686;51.880;5.632;2023-05-07T11:16:17;19.70;99.90
63537;DHT22;49686;51.880;5.632;2023-05-07T11:18:50;20.00;99.90
63537;DHT22;49686;51.880;5.632;2023-05-07T11:21:36;19.90;99.90
63537;DHT22;49686;51.880;5.632;2023-05-07T11:24:06;20.10;99.90
63537;DHT22;49686;51.880;5.632;2023-05-07T11:26:47;20.10;99.90
63537;DHT22;49686;51.880;5.632;2023-05-07T11:29:15;20.20;99.90
63537;DHT22;49686;51.880;5.632;2023-05-07T11:31:48;20.20;99.90
63537;DHT22;49686;51.880;5.632;2023-05-07T11:34:21;20.30;99.90
63537;DHT22;49686;51.880;5.632;2023-05-07T11:36:48;20.30;99.90
63537;DHT22;49686;51.880;5.632;2023-05-07T11:39:26;20.20;99.90
63537;DHT22;49686;51.880;5.632;2023-05-07T11:41:52;20.00;99.90
63537;DHT22;49686;51.880;5.632;2023-05-07T11:44:19;19.80;99.90
63537;DHT22;49686;51.880;5.632;2023-05-07T11:46:46;19.80;99.90
63537;DHT22;49686;51.880;5.632;2023-05-07T11:49:13;19.80;99.90
63537;DHT22;49686;51.880;5.632;2023-05-07T11:51:41;19.70;99.90
63537;DHT22;49686;51.880;5.632;2023-05-07T11:54:08;19.50;99.90
63537;DHT22;49686;51.880;5.632;2023-05-07T11:56:36;19.00;99.90
63537;DHT22;49686;51.880;5.632;2023-05-07T11:59:03;19.00;99.90
63537;DHT22;49686;51.880;5.632;2023-05-07T12:01:29;18.80;99.90
63537;DHT22;49686;51.880;5.632;2023-05-07T12:03:56;18.60;99.90
63537;DHT22;49686;51.880;5.632;2023-05-07T12:06:23;18.60;99.90
63537;DHT22;49686;51.880;5.632;2023-05-07T12:08:51;18.70;99.90
63537;DHT22;49686;51.880;5.632;2023-05-07T12:11:23;19.00;99.90
63537;DHT22;49686;51.880;5.632;2023-05-07T12:13:51;19.10;99.90
63537;DHT22;49686;51.880;5.632;2023-05-07T12:16:19;19.40;99.90
63537;DHT22;49686;51.880;5.632;2023-05-07T12:18:46;19.50;99.90
63537;DHT22;49686;51.880;5.632;2023-05-07T12:21:13;19.40;99.90
63537;DHT22;49686;51.880;5.632;2023-05-07T12:23:40;19.50;99.90
63537;DHT22;49686;51.880;5.632;2023-05-07T12:26:10;19.60;99.90
63537;DHT22;49686;51.880;5.632;2023-05-07T12:28:38;19.90;99.90
63537;DHT22;49686;51.880;5.632;2023-05-07T12:31:05;20.20;99.90
63537;DHT22;49686;51.880;5.632;2023-05-07T12:33:32;20.40;99.90
63537;DHT22;49686;51.880;5.632;2023-05-07T12:36:03;20.40;99.90
63537;DHT22;49686;51.880;5.632;2023-05-07T12:38:35;20.70;99.90
63537;DHT22;49686;51.880;5.632;2023-05-07T12:41:02;20.60;99.90
63537;DHT22;49686;51.880;5.632;2023-05-07T12:43:30;20.20;99.90
63537;DHT22;49686;51.880;5.632;2023-05-07T12:46:00;20.00;99.90
63537;DHT22;49686;51.880;5.632;2023-05-07T12:48:27;20.00;99.90
63537;DHT22;49686;51.880;5.632;2023-05-07T12:50:55;20.10;99.90
63537;DHT22;49686;51.880;5.632;2023-05-07T12:53:23;20.30;99.90
63537;DHT22;49686;51.880;5.632;2023-05-07T12:55:51;20.40;99.90
63537;DHT22;49686;51.880;5.632;2023-05-07T12:58:19;20.20;99.90
63537;DHT22;49686;51.880;5.632;2023-05-07T13:00:49;19.90;99.90
63537;DHT22;49686;51.880;5.632;2023-05-07T13:03:24;19.90;99.90
63537;DHT22;49686;51.880;5.632;2023-05-07T13:05:51;20.00;99.90
63537;DHT22;49686;51.880;5.632;2023-05-07T13:08:29;19.90;99.90
63537;DHT22;49686;51.880;5.632;2023-05-07T13:10:57;20.20;99.90
63537;DHT22;49686;51.880;5.632;2023-05-07T13:13:24;20.30;99.90
63537;DHT22;49686;51.880;5.632;2023-05-07T13:15:52;20.40;99.90
63537;DHT22;49686;51.880;5.632;2023-05-07T13:18:20;20.30;99.90
63537;DHT22;49686;51.880;5.632;2023-05-07T13:20:47;20.40;99.90
63537;DHT22;49686;51.880;5.632;2023-05-07T13:23:14;20.50;99.90
63537;DHT22;49686;51.880;5.632;2023-05-07T13:25:41;20.40;99.90
63537;DHT22;49686;51.880;5.632;2023-05-07T13:28:08;20.40;99.90
63537;DHT22;49686;51.880;5.632;2023-05-07T13:30:37;20.50;99.90
63537;DHT22;49686;51.880;5.632;2023-05-07T13:33:06;20.70;99.90
63537;DHT22;49686;51.880;5.632;2023-05-07T13:35:33;20.60;99.90
63537;DHT22;49686;51.880;5.632;2023-05-07T13:38:00;20.50;99.90
63537;DHT22;49686;51.880;5.632;2023-05-07T13:40:26;20.40;99.90
63537;DHT22;49686;51.880;5.632;2023-05-07T13:42:54;20.40;99.90
63537;DHT22;49686;51.880;5.632;2023-05-07T13:45:20;20.40;99.90
63537;DHT22;49686;51.880;5.632;2023-05-07T13:47:47;20.40;99.90
63537;DHT22;49686;51.880;5.632;2023-05-07T13:50:15;20.30;99.90
63537;DHT22;49686;51.880;5.632;2023-05-07T13:52:43;20.40;99.90
63537;DHT22;49686;51.880;5.632;2023-05-07T13:55:12;20.30;99.90
63537;DHT22;49686;51.880;5.632;2023-05-07T13:57:40;20.30;99.90
63537;DHT22;49686;51.880;5.632;2023-05-07T14:00:08;20.30;99.90
63537;DHT22;49686;51.880;5.632;2023-05-07T14:02:35;20.60;99.90
63537;DHT22;49686;51.880;5.632;2023-05-07T14:05:04;20.60;99.90
63537;DHT22;49686;51.880;5.632;2023-05-07T14:07:33;20.40;99.90
63537;DHT22;49686;51.880;5.632;2023-05-07T14:09:59;20.50;99.90
63537;DHT22;49686;51.880;5.632;2023-05-07T14:12:26;20.90;99.90
63537;DHT22;49686;51.880;5.632;2023-05-07T14:14:53;21.30;99.90
63537;DHT22;49686;51.880;5.632;2023-05-07T14:17:20;21.20;99.90
63537;DHT22;49686;51.880;5.632;2023-05-07T14:19:47;21.20;99.90
63537;DHT22;49686;51.880;5.632;2023-05-07T14:22:17;21.20;99.90
63537;DHT22;49686;51.880;5.632;2023-05-07T14:24:47;21.00;99.90
63537;DHT22;49686;51.880;5.632;2023-05-07T14:27:31;21.00;99.90
63537;DHT22;49686;51.880;5.632;2023-05-07T14:29:57;21.50;99.90
63537;DHT22;49686;51.880;5.632;2023-05-07T14:32:24;21.40;99.90
63537;DHT22;49686;51.880;5.632;2023-05-07T14:34:51;21.20;99.90
63537;DHT22;49686;51.880;5.632;2023-05-07T14:37:18;21.40;99.90
63537;DHT22;49686;51.880;5.632;2023-05-07T14:39:46;21.40;99.90
63537;DHT22;49686;51.880;5.632;2023-05-07T14:42:16;21.10;99.90
63537;DHT22;49686;51.880;5.632;2023-05-07T14:44:44;21.20;99.90
63537;DHT22;49686;51.880;5.632;2023-05-07T14:47:11;20.20;99.90
63537;DHT22;49686;51.880;5.632;2023-05-07T14:49:38;19.00;99.90
63537;DHT22;49686;51.880;5.632;2023-05-07T14:52:05;17.80;99.90
63537;DHT22;49686;51.880;5.632;2023-05-07T14:54:33;17.30;99.90
63537;DHT22;49686;51.880;5.632;2023-05-07T14:57:08;16.90;99.90
63537;DHT22;49686;51.880;5.632;2023-05-07T14:59:35;16.60;99.90
63537;DHT22;49686;51.880;5.632;2023-05-07T15:02:07;16.60;99.90
63537;DHT22;49686;51.880;5.632;2023-05-07T15:04:34;16.50;99.90
63537;DHT22;49686;51.880;5.632;2023-05-07T15:07:01;16.30;99.90
63537;DHT22;49686;51.880;5.632;2023-05-07T15:09:29;16.10;99.90
63537;DHT22;49686;51.880;5.632;2023-05-07T15:11:56;15.70;99.90
63537;DHT22;49686;51.880;5.632;2023-05-07T15:14:25;15.40;99.90
63537;DHT22;49686;51.880;5.632;2023-05-07T15:16:52;15.30;99.90
63537;DHT22;49686;51.880;5.632;2023-05-07T15:19:18;14.90;99.90
63537;DHT22;49686;51.880;5.632;2023-05-07T15:21:45;14.70;99.90
63537;DHT22;49686;51.880;5.632;2023-05-07T15:24:12;14.50;99.90
63537;DHT22;49686;51.880;5.632;2023-05-07T15:26:39;14.00;99.90
63537;DHT22;49686;51.880;5.632;2023-05-07T15:29:05;13.60;99.90
63537;DHT22;49686;51.880;5.632;2023-05-07T15:31:33;13.50;99.90
63537;DHT22;49686;51.880;5.632;2023-05-07T15:34:00;13.30;99.90
63537;DHT22;49686;51.880;5.632;2023-05-07T15:36:27;13.30;99.90